Time;durP1;ratioP1;P1;durP2;ratioP2;P2;SDS_P1;SDS_P2;PMS_P1;PMS_P2;Temp;Humidity;BMP_temperature;BMP_pressure;BME280_temperature;BME280_humidity;BME280_pressure;Samples;Min_cycle;Max_cycle;Signal;HPM_P1;HPM_P2
2021/11/21 00:00:10;;;;;;;18.37;11.27;;;10.80;99.90;;;;;;5119274;27;39140;-76
2021/11/21 00:02:36;;;;;;;15.97;11.13;;;10.80;99.90;;;;;;5132963;27;37922;-75
2021/11/21 00:05:03;;;;;;;18.13;12.67;;;10.80;99.90;;;;;;5113819;27;40423;-76
2021/11/21 00:07:29;;;;;;;18.90;12.67;;;10.80;99.90;;;;;;5126867;27;40210;-76
2021/11/21 00:09:55;;;;;;;18.13;12.33;;;10.80;99.90;;;;;;5134812;27;39692;-76
2021/11/21 00:12:21;;;;;;;17.13;11.60;;;10.80;99.90;;;;;;5113381;27;39112;-76
2021/11/21 00:14:48;;;;;;;15.10;11.33;;;10.80;99.90;;;;;;5136622;27;39294;-75
2021/11/21 00:17:14;;;;;;;22.20;11.33;;;10.80;99.90;;;;;;5116908;27;39285;-76
2021/11/21 00:19:41;;;;;;;17.27;11.17;;;10.80;99.90;;;;;;5154908;27;39257;-76
2021/11/21 00:22:09;;;;;;;16.73;11.43;;;10.80;99.90;;;;;;5131575;27;37298;-76
2021/11/21 00:24:38;;;;;;;12.90;9.93;;;10.80;99.90;;;;;;5129852;27;42133;-76
2021/11/21 00:27:05;;;;;;;14.47;10.57;;;10.80;99.90;;;;;;5123861;27;39926;-75
2021/11/21 00:29:32;;;;;;;13.33;10.70;;;10.80;99.90;;;;;;5134611;27;36891;-75
2021/11/21 00:31:58;;;;;;;14.27;9.93;;;10.80;99.90;;;;;;5132271;27;39268;-76
2021/11/21 00:34:24;;;;;;;14.00;9.17;;;10.90;99.90;;;;;;5136275;27;38952;-76
2021/11/21 00:36:50;;;;;;;18.07;9.23;;;10.90;99.90;;;;;;5135956;27;39690;-76
2021/11/21 00:39:16;;;;;;;14.97;9.23;;;10.90;99.90;;;;;;5122787;27;40104;-74
2021/11/21 00:41:42;;;;;;;12.97;9.63;;;10.90;99.90;;;;;;5153645;27;37278;-76
2021/11/21 00:44:09;;;;;;;11.50;8.00;;;10.90;99.90;;;;;;5155282;27;37221;-76
2021/11/21 00:46:35;;;;;;;15.53;9.77;;;10.90;99.90;;;;;;5138600;27;40835;-76
2021/11/21 00:49:03;;;;;;;16.47;8.77;;;10.80;99.90;;;;;;5136138;27;37250;-75
2021/11/21 00:51:29;;;;;;;12.03;8.63;;;10.90;99.90;;;;;;5131590;27;37032;-76
2021/11/21 00:54:05;;;;;;;10.60;8.17;;;10.90;99.90;;;;;;5132053;27;37759;-76
2021/11/21 00:56:31;;;;;;;11.97;7.10;;;10.90;99.90;;;;;;5153289;27;49010;-76
2021/11/21 00:58:57;;;;;;;11.57;7.63;;;10.90;99.90;;;;;;5149125;27;39732;-75
2021/11/21 01:01:23;;;;;;;12.37;7.53;;;10.90;99.90;;;;;;5128749;27;37275;-76
2021/11/21 01:03:50;;;;;;;11.03;7.07;;;10.90;99.90;;;;;;5128854;27;40712;-74
2021/11/21 01:06:16;;;;;;;12.20;6.87;;;10.90;99.90;;;;;;5129784;27;39480;-75
2021/11/21 01:08:42;;;;;;;10.73;7.10;;;10.90;99.90;;;;;;5131240;27;37028;-77
2021/11/21 01:11:08;;;;;;;8.90;6.80;;;10.90;99.90;;;;;;5130328;27;37500;-76
2021/11/21 01:13:37;;;;;;;8.77;6.83;;;10.90;99.90;;;;;;5148653;27;39150;-74
2021/11/21 01:16:04;;;;;;;7.57;6.33;;;10.90;99.90;;;;;;5132898;27;40285;-75
2021/11/21 01:18:31;;;;;;;9.73;6.90;;;11.00;99.90;;;;;;5132771;27;37757;-74
2021/11/21 01:20:57;;;;;;;8.60;6.33;;;11.00;99.90;;;;;;5131490;27;38094;-74
2021/11/21 01:23:23;;;;;;;9.03;6.13;;;11.00;99.90;;;;;;5133423;27;38942;-76
2021/11/21 01:25:50;;;;;;;10.37;6.27;;;11.00;99.90;;;;;;5130809;27;39387;-74
2021/11/21 01:28:16;;;;;;;10.90;6.20;;;11.00;99.90;;;;;;5129192;27;39490;-75
2021/11/21 01:30:43;;;;;;;14.43;5.97;;;11.00;99.90;;;;;;5132725;27;36909;-75
2021/11/21 01:33:11;;;;;;;11.90;7.00;;;11.00;99.90;;;;;;5136858;27;39300;-76
2021/11/21 01:35:37;;;;;;;17.73;7.90;;;11.00;99.90;;;;;;5134656;27;37372;-75
2021/11/21 01:38:04;;;;;;;11.60;7.37;;;10.90;99.90;;;;;;5131763;27;39257;-75
2021/11/21 01:40:31;;;;;;;12.43;6.53;;;10.90;99.90;;;;;;5131515;27;37223;-75
2021/11/21 01:42:58;;;;;;;11.47;6.23;;;10.90;99.90;;;;;;5136233;27;39824;-75
2021/11/21 01:45:25;;;;;;;14.67;6.93;;;10.90;99.90;;;;;;5130379;27;39130;-76
2021/11/21 01:47:52;;;;;;;10.03;6.77;;;11.00;99.90;;;;;;5136872;27;39327;-76
2021/11/21 01:50:28;;;;;;;10.40;7.03;;;11.00;99.90;;;;;;5131144;27;37133;-76
2021/11/21 01:52:55;;;;;;;9.63;5.93;;;11.00;99.90;;;;;;5133388;27;38896;-76
2021/11/21 01:55:22;;;;;;;15.23;7.67;;;11.00;99.90;;;;;;5131973;27;39585;-75
2021/11/21 01:57:48;;;;;;;11.57;6.03;;;11.00;99.90;;;;;;5133338;27;38535;-76
2021/11/21 02:00:15;;;;;;;10.23;6.20;;;11.00;99.90;;;;;;5133794;27;38572;-76
2021/11/21 02:02:42;;;;;;;10.53;6.33;;;11.00;99.90;;;;;;5133997;27;39858;-76
2021/11/21 02:05:10;;;;;;;13.63;6.23;;;11.00;99.90;;;;;;5153989;27;39304;-76
2021/11/21 02:07:36;;;;;;;11.43;7.10;;;11.00;99.90;;;;;;5140730;27;38412;-75
2021/11/21 02:10:05;;;;;;;9.87;6.43;;;11.10;99.90;;;;;;5117688;27;37852;-76
2021/11/21 02:12:32;;;;;;;11.37;7.37;;;11.10;99.90;;;;;;5110647;27;46893;-76
2021/11/21 02:14:59;;;;;;;14.73;6.93;;;11.10;99.90;;;;;;5114967;27;38006;-75
2021/11/21 02:17:26;;;;;;;10.43;6.40;;;11.10;99.90;;;;;;5119609;27;39326;-74
2021/11/21 02:19:53;;;;;;;13.83;6.87;;;11.10;99.90;;;;;;5156158;27;36689;-75
2021/11/21 02:22:20;;;;;;;12.70;6.83;;;11.10;99.90;;;;;;5132991;27;39041;-76
2021/11/21 02:24:46;;;;;;;21.90;8.50;;;11.10;99.90;;;;;;5119765;27;40193;-75
2021/11/21 02:27:22;;;;;;;10.93;7.03;;;11.10;99.90;;;;;;5131868;27;38966;-75
2021/11/21 02:29:48;;;;;;;11.27;8.00;;;11.10;99.90;;;;;;5144467;27;37867;-75
2021/11/21 02:32:14;;;;;;;19.37;7.97;;;11.10;99.90;;;;;;5132093;27;38896;-75
2021/11/21 02:34:40;;;;;;;14.00;8.67;;;11.20;99.90;;;;;;5135081;27;38407;-76
2021/11/21 02:37:08;;;;;;;19.30;11.10;;;11.20;99.90;;;;;;5124580;27;39470;-76
2021/11/21 02:39:40;;;;;;;14.30;9.00;;;11.20;99.90;;;;;;5131518;27;37693;-76
2021/11/21 02:42:07;;;;;;;10.57;8.60;;;11.30;99.90;;;;;;5153424;27;39146;-76
2021/11/21 02:44:34;;;;;;;12.77;8.70;;;11.30;99.90;;;;;;5133535;27;39456;-76
2021/11/21 02:47:01;;;;;;;11.77;8.80;;;11.40;99.90;;;;;;5161245;27;38967;-76
2021/11/21 02:49:27;;;;;;;15.80;9.00;;;11.40;99.90;;;;;;5158475;27;47967;-76
2021/11/21 02:51:53;;;;;;;12.17;7.60;;;11.40;99.90;;;;;;5140045;27;39132;-76
2021/11/21 02:54:19;;;;;;;10.03;7.40;;;11.40;99.90;;;;;;5137399;27;39910;-76
2021/11/21 02:56:46;;;;;;;13.33;8.17;;;11.40;99.90;;;;;;5132999;27;39765;-76
2021/11/21 02:59:12;;;;;;;8.33;5.80;;;11.40;99.90;;;;;;5155487;27;37554;-74
2021/11/21 03:01:38;;;;;;;9.17;7.63;;;11.40;99.90;;;;;;5154881;27;38544;-76
2021/11/21 03:04:04;;;;;;;9.33;6.03;;;11.40;99.90;;;;;;5153822;27;39759;-75
2021/11/21 03:06:34;;;;;;;8.97;5.93;;;11.50;99.90;;;;;;5147404;27;38519;-75
2021/11/21 03:09:00;;;;;;;7.70;5.80;;;11.50;99.90;;;;;;5133956;27;37695;-74
2021/11/21 03:11:34;;;;;;;7.03;5.77;;;11.50;99.90;;;;;;5140432;27;47484;-75
2021/11/21 03:14:03;;;;;;;7.33;5.63;;;11.50;99.90;;;;;;5130374;27;37915;-77
2021/11/21 03:16:29;;;;;;;5.93;5.30;;;11.50;99.90;;;;;;5136329;27;48017;-75
2021/11/21 03:18:55;;;;;;;17.30;10.50;;;11.50;99.90;;;;;;5138604;27;38045;-74
2021/11/21 03:21:21;;;;;;;7.20;6.50;;;11.50;99.90;;;;;;5129069;27;39434;-74
2021/11/21 03:23:48;;;;;;;13.30;11.17;;;11.50;99.90;;;;;;5133356;27;38820;-77
2021/11/21 03:26:14;;;;;;;11.20;9.50;;;11.60;99.90;;;;;;5135840;27;40055;-76
2021/11/21 03:28:40;;;;;;;12.43;10.53;;;11.60;99.90;;;;;;5116656;27;36803;-76
2021/11/21 03:31:07;;;;;;;17.10;12.90;;;11.60;99.90;;;;;;5127650;27;36725;-77
2021/11/21 03:33:34;;;;;;;13.17;11.00;;;11.60;99.90;;;;;;5113183;27;39297;-75
2021/11/21 03:36:00;;;;;;;10.67;9.40;;;11.60;99.90;;;;;;5130496;27;40696;-76
2021/11/21 03:38:26;;;;;;;15.93;10.47;;;11.70;99.90;;;;;;5133521;27;38014;-76
2021/11/21 03:40:52;;;;;;;14.13;10.53;;;11.60;99.90;;;;;;5149174;27;39840;-77
2021/11/21 03:43:18;;;;;;;14.17;11.30;;;11.60;99.90;;;;;;5154976;27;39096;-75
2021/11/21 03:45:44;;;;;;;14.93;10.30;;;11.60;99.90;;;;;;5130461;27;38520;-75
2021/11/21 03:48:10;;;;;;;13.20;6.67;;;11.60;99.90;;;;;;5130460;27;36133;-75
2021/11/21 03:50:36;;;;;;;9.97;6.00;;;11.60;99.90;;;;;;5131524;27;39193;-75
2021/11/21 03:53:03;;;;;;;12.77;5.70;;;11.70;99.90;;;;;;5148436;27;38820;-74
2021/11/21 03:55:29;;;;;;;15.50;5.80;;;11.70;99.90;;;;;;5156548;27;39563;-75
2021/11/21 03:57:55;;;;;;;11.10;4.60;;;11.70;99.90;;;;;;5135164;27;37634;-75
2021/11/21 04:00:24;;;;;;;13.03;5.87;;;11.80;99.90;;;;;;5155172;27;38733;-76
2021/11/21 04:02:53;;;;;;;14.10;5.23;;;11.80;99.90;;;;;;5153286;27;38662;-75
2021/11/21 04:05:19;;;;;;;8.35;3.72;;;11.80;99.90;;;;;;5152730;27;38129;-75
2021/11/21 04:07:46;;;;;;;13.50;3.67;;;11.80;99.90;;;;;;5156598;27;37903;-75
2021/11/21 04:10:12;;;;;;;6.63;2.93;;;11.70;99.90;;;;;;5152692;27;40472;-75
2021/11/21 04:12:39;;;;;;;9.67;2.20;;;11.70;99.90;;;;;;5135223;27;39121;-75
2021/11/21 04:15:08;;;;;;;6.83;1.63;;;11.60;99.90;;;;;;5146403;27;39185;-74
2021/11/21 04:17:35;;;;;;;9.47;1.50;;;11.50;99.90;;;;;;5119805;27;39315;-75
2021/11/21 04:20:03;;;;;;;3.00;1.10;;;11.40;99.90;;;;;;5136442;27;37873;-74
2021/11/21 04:22:29;;;;;;;6.70;1.20;;;11.40;99.90;;;;;;5118260;27;38017;-75
2021/11/21 04:24:57;;;;;;;5.23;1.90;;;11.30;99.90;;;;;;5111616;27;37130;-74
2021/11/21 04:27:27;;;;;;;6.80;1.53;;;11.30;99.90;;;;;;5135350;27;37037;-76
2021/11/21 04:29:56;;;;;;;5.10;1.10;;;11.30;99.90;;;;;;5112007;27;39085;-75
2021/11/21 04:32:24;;;;;;;8.37;1.50;;;11.30;99.90;;;;;;5132101;27;38924;-75
2021/11/21 04:34:51;;;;;;;4.67;1.17;;;11.20;99.90;;;;;;5135628;27;38515;-75
2021/11/21 04:37:17;;;;;;;4.07;0.87;;;11.20;99.90;;;;;;5130839;27;36654;-75
2021/11/21 04:39:44;;;;;;;4.67;0.90;;;11.20;99.90;;;;;;5129265;27;37885;-75
2021/11/21 04:42:11;;;;;;;5.27;1.20;;;11.20;99.90;;;;;;5133763;27;39104;-75
2021/11/21 04:44:37;;;;;;;8.70;1.20;;;11.20;99.90;;;;;;5157071;27;37937;-75
2021/11/21 04:47:03;;;;;;;2.70;0.90;;;11.20;99.90;;;;;;5134513;27;37411;-76
2021/11/21 04:49:29;;;;;;;4.90;0.73;;;11.20;99.90;;;;;;5137159;27;38561;-75
2021/11/21 04:51:57;;;;;;;6.23;1.07;;;11.20;99.90;;;;;;5120554;27;38126;-75
2021/11/21 04:54:26;;;;;;;8.93;1.30;;;11.20;99.90;;;;;;5132863;27;39005;-76
2021/11/21 04:56:53;;;;;;;7.50;1.20;;;11.20;99.90;;;;;;5122564;27;36544;-75
2021/11/21 04:59:20;;;;;;;8.10;0.97;;;11.20;99.90;;;;;;5126204;27;39245;-75
2021/11/21 05:01:47;;;;;;;5.30;0.90;;;11.30;99.90;;;;;;5136311;27;38972;-75
2021/11/21 05:04:13;;;;;;;8.53;1.80;;;11.20;99.90;;;;;;5124791;27;37305;-75
2021/11/21 05:06:39;;;;;;;9.13;1.60;;;11.30;99.90;;;;;;5111905;27;37348;-75
2021/11/21 05:09:06;;;;;;;9.27;1.63;;;11.20;99.90;;;;;;5131182;27;36964;-75
2021/11/21 05:11:32;;;;;;;5.97;1.20;;;11.20;99.90;;;;;;5126705;27;39246;-75
2021/11/21 05:13:59;;;;;;;9.47;0.93;;;11.10;99.90;;;;;;5147619;27;38537;-75
2021/11/21 05:16:26;;;;;;;8.60;1.13;;;11.10;99.90;;;;;;5128764;27;36927;-75
2021/11/21 05:18:52;;;;;;;7.00;1.07;;;11.00;99.90;;;;;;5132695;27;39196;-76
2021/11/21 05:21:18;;;;;;;9.70;1.47;;;11.00;99.90;;;;;;5131521;27;39566;-76
2021/11/21 05:23:45;;;;;;;8.83;0.93;;;10.90;99.90;;;;;;5133127;27;40296;-76
2021/11/21 05:26:11;;;;;;;9.97;1.10;;;10.90;99.90;;;;;;5132167;27;35942;-76
2021/11/21 05:28:37;;;;;;;8.03;1.27;;;10.90;99.90;;;;;;5129135;27;38749;-75
2021/11/21 05:31:03;;;;;;;11.33;1.63;;;10.90;99.90;;;;;;5149171;27;38880;-75
2021/11/21 05:33:30;;;;;;;5.93;0.80;;;10.80;99.90;;;;;;5149834;27;38461;-75
2021/11/21 05:35:56;;;;;;;9.47;1.67;;;10.80;99.90;;;;;;5134247;27;35198;-75
2021/11/21 05:38:22;;;;;;;9.33;1.17;;;10.80;99.90;;;;;;5146504;27;38808;-75
2021/11/21 05:40:49;;;;;;;10.70;1.73;;;10.80;99.90;;;;;;5125815;27;38694;-74
2021/11/21 05:43:15;;;;;;;6.53;1.30;;;10.80;99.90;;;;;;5132579;27;38674;-75
2021/11/21 05:45:42;;;;;;;12.77;1.83;;;10.80;99.90;;;;;;5150043;27;37917;-75
2021/11/21 05:48:09;;;;;;;9.80;2.23;;;10.80;99.90;;;;;;5149293;27;38667;-74
2021/11/21 05:50:35;;;;;;;13.10;1.57;;;10.80;99.90;;;;;;5149573;27;38940;-74
2021/11/21 05:53:02;;;;;;;11.10;1.33;;;10.80;99.90;;;;;;5134629;27;37267;-76
2021/11/21 05:55:28;;;;;;;13.73;1.57;;;10.80;99.90;;;;;;5133815;27;36176;-75
2021/11/21 05:57:54;;;;;;;12.73;1.60;;;10.70;99.90;;;;;;5124848;27;39304;-76
2021/11/21 06:00:23;;;;;;;9.80;1.40;;;10.70;99.90;;;;;;5134950;27;39719;-75
2021/11/21 06:02:49;;;;;;;7.30;1.27;;;10.70;99.90;;;;;;5118336;27;39495;-75
2021/11/21 06:05:16;;;;;;;7.30;1.00;;;10.70;99.90;;;;;;5138707;27;37360;-76
2021/11/21 06:07:42;;;;;;;12.07;1.20;;;10.70;99.90;;;;;;5136698;27;41320;-75
2021/11/21 06:10:10;;;;;;;10.00;1.30;;;10.60;99.90;;;;;;5136213;27;39312;-74
2021/11/21 06:12:36;;;;;;;7.77;1.50;;;10.70;99.90;;;;;;5134859;27;38227;-76
2021/11/21 06:15:04;;;;;;;13.33;1.43;;;10.60;99.90;;;;;;5142496;27;37498;-76
2021/11/21 06:17:30;;;;;;;9.53;1.37;;;10.60;99.90;;;;;;5131439;27;46828;-76
2021/11/21 06:19:56;;;;;;;12.57;1.43;;;10.60;99.90;;;;;;5151381;27;38674;-76
2021/11/21 06:22:22;;;;;;;9.57;2.03;;;10.60;99.90;;;;;;5136779;27;39566;-76
2021/11/21 06:24:48;;;;;;;14.33;1.60;;;10.60;99.90;;;;;;5133902;27;38502;-76
2021/11/21 06:27:15;;;;;;;12.77;1.70;;;10.60;99.90;;;;;;5130490;27;39592;-76
2021/11/21 06:29:42;;;;;;;11.87;1.30;;;10.60;99.90;;;;;;5129564;27;39632;-75
2021/11/21 06:32:08;;;;;;;6.60;1.10;;;10.60;99.90;;;;;;5152833;27;38074;-76
2021/11/21 06:34:34;;;;;;;11.10;1.33;;;10.60;99.90;;;;;;5151600;27;37134;-76
2021/11/21 06:37:02;;;;;;;14.33;1.47;;;10.60;99.90;;;;;;5154829;27;39194;-75
2021/11/21 06:39:28;;;;;;;9.87;1.13;;;10.70;99.90;;;;;;5131650;27;47503;-74
2021/11/21 06:41:55;;;;;;;8.33;1.53;;;10.70;99.90;;;;;;5152099;27;36671;-75
2021/11/21 06:44:21;;;;;;;9.40;2.47;;;10.60;99.90;;;;;;5147372;27;37995;-74
2021/11/21 06:46:47;;;;;;;7.80;1.27;;;10.60;99.90;;;;;;5156336;27;38855;-75
2021/11/21 06:49:13;;;;;;;15.67;1.50;;;10.50;99.90;;;;;;5137461;27;37587;-76
2021/11/21 06:51:41;;;;;;;9.70;2.60;;;10.50;99.90;;;;;;5138846;27;37474;-75
2021/11/21 06:54:08;;;;;;;8.93;1.17;;;10.40;99.90;;;;;;5143067;27;37363;-76
2021/11/21 06:56:36;;;;;;;5.17;1.03;;;10.30;99.90;;;;;;5122123;27;37771;-75
2021/11/21 06:59:03;;;;;;;7.37;1.10;;;10.20;99.90;;;;;;5122527;27;39362;-74
2021/11/21 07:01:29;;;;;;;10.93;1.47;;;10.10;99.90;;;;;;5147512;27;38349;-73
2021/11/21 07:03:55;;;;;;;8.10;0.80;;;10.10;99.90;;;;;;5114614;27;36505;-74
2021/11/21 07:06:33;;;;;;;9.43;1.27;;;10.10;99.90;;;;;;5128147;27;39547;-75
2021/11/21 07:09:00;;;;;;;7.07;1.10;;;10.00;99.90;;;;;;5133172;27;41450;-75
2021/11/21 07:11:26;;;;;;;7.33;1.47;;;10.00;99.90;;;;;;5118499;27;40009;-75
2021/11/21 07:13:52;;;;;;;10.70;1.23;;;10.00;99.90;;;;;;5130892;27;38917;-75
2021/11/21 07:16:18;;;;;;;10.53;1.57;;;10.00;99.90;;;;;;5126210;27;39785;-74
2021/11/21 07:18:44;;;;;;;8.20;1.00;;;9.90;99.90;;;;;;5130199;27;39365;-73
2021/11/21 07:21:10;;;;;;;12.60;1.27;;;9.90;99.90;;;;;;5117097;27;38680;-74
2021/11/21 07:23:36;;;;;;;9.20;1.50;;;9.90;99.90;;;;;;5119351;27;38099;-76
2021/11/21 07:26:04;;;;;;;11.23;2.10;;;10.00;99.90;;;;;;5134966;27;38532;-74
2021/11/21 07:28:30;;;;;;;9.23;1.40;;;10.00;99.90;;;;;;5130359;27;38410;-74
2021/11/21 07:30:57;;;;;;;7.10;1.20;;;10.00;99.90;;;;;;5116584;27;37887;-74
2021/11/21 07:33:23;;;;;;;8.27;1.27;;;10.00;99.90;;;;;;5110851;27;38039;-74
2021/11/21 07:35:52;;;;;;;9.60;1.43;;;10.00;99.90;;;;;;5123020;27;39521;-74
2021/11/21 07:38:19;;;;;;;5.77;1.20;;;10.00;99.90;;;;;;5124978;27;39896;-74
2021/11/21 07:40:46;;;;;;;11.07;1.60;;;10.10;99.90;;;;;;5141634;27;38111;-74
2021/11/21 07:43:13;;;;;;;9.93;2.30;;;10.10;99.90;;;;;;5131534;27;37210;-74
2021/11/21 07:45:39;;;;;;;14.23;2.30;;;10.10;99.90;;;;;;5134635;27;40598;-75
2021/11/21 07:48:05;;;;;;;11.47;2.13;;;10.20;99.90;;;;;;5129315;27;40461;-74
2021/11/21 07:50:32;;;;;;;10.80;1.60;;;10.20;99.90;;;;;;5116851;27;39989;-75
2021/11/21 07:52:58;;;;;;;9.67;1.87;;;10.20;99.90;;;;;;5133464;27;37892;-75
2021/11/21 07:55:24;;;;;;;9.37;1.50;;;10.20;99.90;;;;;;5133184;27;37378;-74
2021/11/21 07:57:50;;;;;;;17.27;1.70;;;10.20;99.90;;;;;;5132714;27;39341;-74
2021/11/21 08:00:16;;;;;;;17.23;1.87;;;10.10;99.90;;;;;;5130033;27;38620;-74
2021/11/21 08:02:43;;;;;;;8.30;1.10;;;10.10;99.90;;;;;;5114805;27;37543;-74
2021/11/21 08:05:10;;;;;;;10.07;1.37;;;10.10;99.90;;;;;;5129438;27;40175;-75
2021/11/21 08:07:36;;;;;;;7.53;1.20;;;10.10;99.90;;;;;;5128657;27;40870;-74
2021/11/21 08:10:04;;;;;;;10.00;1.23;;;10.10;99.90;;;;;;5130270;27;38814;-73
2021/11/21 08:12:31;;;;;;;15.47;1.90;;;10.10;99.90;;;;;;5129010;27;46952;-74
2021/11/21 08:14:57;;;;;;;9.53;1.50;;;10.20;99.90;;;;;;5124331;27;40624;-73
2021/11/21 08:17:23;;;;;;;14.73;1.67;;;10.20;99.90;;;;;;5130520;27;40278;-74
2021/11/21 08:19:49;;;;;;;14.43;1.83;;;10.20;99.90;;;;;;5155947;27;38274;-76
2021/11/21 08:22:16;;;;;;;8.43;1.37;;;10.20;99.90;;;;;;5153079;27;37322;-73
2021/11/21 08:24:42;;;;;;;13.17;1.70;;;10.30;99.90;;;;;;5154972;27;39930;-74
2021/11/21 08:27:10;;;;;;;12.37;1.40;;;10.30;99.90;;;;;;5128357;27;40830;-76
2021/11/21 08:29:36;;;;;;;11.87;1.50;;;10.40;99.90;;;;;;5153528;27;39170;-74
2021/11/21 08:32:03;;;;;;;12.23;1.73;;;10.30;99.90;;;;;;5152845;27;37316;-74
2021/11/21 08:34:29;;;;;;;11.37;1.57;;;10.40;99.90;;;;;;5130678;27;39543;-74
2021/11/21 08:36:55;;;;;;;10.47;1.73;;;10.30;99.90;;;;;;5134015;27;39087;-76
2021/11/21 08:39:22;;;;;;;16.07;2.23;;;10.30;99.90;;;;;;5150782;27;38885;-76
2021/11/21 08:41:49;;;;;;;17.67;2.63;;;10.30;99.90;;;;;;5137924;27;36897;-76
2021/11/21 08:44:18;;;;;;;8.90;1.60;;;10.40;99.90;;;;;;5133275;27;39313;-75
2021/11/21 08:46:46;;;;;;;13.37;1.70;;;10.30;99.90;;;;;;5136156;27;38919;-75
2021/11/21 08:49:13;;;;;;;10.20;2.20;;;10.30;99.90;;;;;;5131107;27;38986;-75
2021/11/21 08:51:46;;;;;;;11.03;2.33;;;10.40;99.90;;;;;;5140754;27;40554;-76
2021/11/21 08:54:12;;;;;;;10.57;1.60;;;10.40;99.90;;;;;;5135134;27;37970;-74
2021/11/21 08:56:39;;;;;;;18.10;1.77;;;10.40;99.90;;;;;;5136280;27;38633;-76
2021/11/21 08:59:05;;;;;;;15.37;1.87;;;10.30;99.90;;;;;;5130045;27;38384;-76
2021/11/21 09:01:33;;;;;;;12.93;1.87;;;10.30;99.90;;;;;;5133098;27;37410;-75
2021/11/21 09:03:59;;;;;;;14.23;2.30;;;10.30;99.90;;;;;;5137497;27;37895;-76
2021/11/21 09:06:26;;;;;;;12.40;1.70;;;10.30;99.90;;;;;;5140635;27;38722;-76
2021/11/21 09:08:52;;;;;;;9.60;1.83;;;10.40;99.90;;;;;;5135087;27;38472;-76
2021/11/21 09:11:18;;;;;;;14.73;2.43;;;10.40;99.90;;;;;;5129474;27;36223;-75
2021/11/21 09:13:44;;;;;;;14.00;1.70;;;10.50;99.90;;;;;;5133062;27;37579;-75
2021/11/21 09:16:10;;;;;;;7.33;1.80;;;10.50;99.90;;;;;;5155053;27;39907;-75
2021/11/21 09:18:37;;;;;;;9.27;1.70;;;10.50;99.90;;;;;;5152618;27;38319;-75
2021/11/21 09:21:03;;;;;;;8.60;1.83;;;10.60;99.90;;;;;;5150237;27;37382;-75
2021/11/21 09:23:30;;;;;;;16.07;2.70;;;10.60;99.90;;;;;;5131681;27;39593;-74
2021/11/21 09:25:56;;;;;;;9.27;1.60;;;10.60;99.90;;;;;;5141163;27;39561;-74
2021/11/21 09:28:26;;;;;;;8.93;1.83;;;10.60;99.90;;;;;;5121182;27;38359;-74
2021/11/21 09:30:54;;;;;;;9.57;2.10;;;10.70;99.90;;;;;;5142175;27;37423;-74
2021/11/21 09:33:21;;;;;;;8.77;1.40;;;10.80;99.90;;;;;;5134858;27;38826;-75
2021/11/21 09:35:47;;;;;;;11.77;2.17;;;10.80;99.90;;;;;;5133371;27;37611;-74
2021/11/21 09:38:14;;;;;;;11.27;1.83;;;10.80;99.90;;;;;;5135042;27;39383;-75
2021/11/21 09:40:40;;;;;;;13.43;3.10;;;10.80;99.90;;;;;;5139718;27;37582;-74
2021/11/21 09:43:06;;;;;;;10.53;2.03;;;10.70;99.90;;;;;;5134150;27;38664;-74
2021/11/21 09:45:32;;;;;;;8.77;1.73;;;10.70;99.90;;;;;;5124054;27;37773;-74
2021/11/21 09:48:01;;;;;;;8.60;2.17;;;10.60;99.90;;;;;;5143592;27;38546;-75
2021/11/21 09:50:33;;;;;;;10.47;2.00;;;10.50;99.90;;;;;;5130994;27;38006;-74
2021/11/21 09:52:59;;;;;;;10.10;1.33;;;10.40;99.90;;;;;;5140517;27;39162;-75
2021/11/21 09:55:26;;;;;;;10.33;1.60;;;10.40;99.90;;;;;;5134540;27;39024;-74
2021/11/21 09:57:53;;;;;;;8.87;1.83;;;10.30;99.90;;;;;;5146169;27;38513;-75
2021/11/21 10:00:22;;;;;;;8.97;1.70;;;10.30;99.90;;;;;;5145543;27;37934;-74
2021/11/21 10:03:04;;;;;;;9.53;2.03;;;10.30;99.90;;;;;;5144944;27;38740;-75
2021/11/21 10:05:43;;;;;;;8.90;1.90;;;10.40;99.90;;;;;;5136714;27;47569;-74
2021/11/21 10:08:20;;;;;;;6.83;1.20;;;10.30;99.90;;;;;;5134711;27;39138;-75
2021/11/21 10:10:51;;;;;;;11.43;2.80;;;10.30;99.90;;;;;;5137167;27;35834;-74
2021/11/21 10:13:47;;;;;;;7.80;1.50;;;10.30;99.90;;;;;;5139523;27;39771;-74
2021/11/21 10:16:16;;;;;;;7.90;1.33;;;10.40;99.90;;;;;;5136892;27;39783;-74
2021/11/21 10:18:55;;;;;;;10.03;1.47;;;10.50;99.90;;;;;;5134423;27;38588;-74
2021/11/21 10:21:32;;;;;;;7.57;1.10;;;10.70;99.90;;;;;;5134337;27;37913;-75
2021/11/21 10:24:28;;;;;;;6.20;1.40;;;10.80;99.90;;;;;;5130932;27;37425;-74
2021/11/21 10:27:05;;;;;;;11.80;1.40;;;11.00;99.90;;;;;;5129496;27;48736;-75
2021/11/21 10:29:35;;;;;;;7.87;1.50;;;11.20;99.90;;;;;;5114414;27;47403;-74
2021/11/21 10:32:11;;;;;;;7.47;1.17;;;11.30;99.90;;;;;;5140044;27;36561;-75
2021/11/21 10:34:47;;;;;;;10.70;1.93;;;11.40;99.90;;;;;;5126510;27;46681;-75
2021/11/21 10:37:13;;;;;;;9.73;1.60;;;11.40;99.90;;;;;;5135889;27;37294;-74
2021/11/21 10:39:45;;;;;;;10.23;2.00;;;11.40;99.90;;;;;;5136202;27;38330;-74
2021/11/21 10:42:12;;;;;;;;;;;11.40;99.90;;;;;;5135833;27;36946;-74
2021/11/21 10:44:48;;;;;;;8.17;1.40;;;11.30;99.90;;;;;;5143877;27;37230;-74
2021/11/21 10:47:14;;;;;;;8.33;1.30;;;11.40;99.90;;;;;;5140488;27;39858;-74
2021/11/21 10:49:40;;;;;;;10.23;1.70;;;11.50;99.90;;;;;;5143527;27;37814;-74
2021/11/21 10:52:17;;;;;;;11.47;1.83;;;11.70;99.90;;;;;;5136562;27;37370;-74
2021/11/21 10:54:57;;;;;;;7.57;1.40;;;11.90;99.90;;;;;;5156110;27;39820;-75
2021/11/21 10:57:27;;;;;;;8.57;1.00;;;12.20;99.90;;;;;;5154645;27;38629;-75
2021/11/21 10:59:55;;;;;;;6.80;0.90;;;12.30;99.90;;;;;;5164697;27;39178;-74
2021/11/21 11:02:26;;;;;;;8.68;1.27;;;12.40;99.90;;;;;;5144204;27;36131;-73
2021/11/21 11:05:13;;;;;;;8.00;1.40;;;12.30;99.90;;;;;;5138357;27;37601;-74
2021/11/21 11:07:47;;;;;;;5.00;0.87;;;12.00;99.90;;;;;;5130095;27;48859;-74
2021/11/21 11:10:31;;;;;;;6.83;0.83;;;11.70;99.90;;;;;;5141785;27;38737;-73
2021/11/21 11:13:06;;;;;;;8.50;1.20;;;11.40;99.90;;;;;;5131846;27;37023;-73
2021/11/21 11:15:34;;;;;;;8.77;1.17;;;11.20;99.90;;;;;;5136752;27;46780;-75
2021/11/21 11:18:00;;;;;;;3.87;0.80;;;11.10;99.90;;;;;;5130605;27;39428;-74
2021/11/21 11:20:28;;;;;;;3.37;0.60;;;11.00;99.90;;;;;;5133049;27;39099;-73
2021/11/21 11:22:57;;;;;;;3.10;0.60;;;11.10;99.90;;;;;;5131445;27;38214;-74
2021/11/21 11:25:26;;;;;;;4.20;0.70;;;11.20;99.90;;;;;;5144761;27;39775;-74
2021/11/21 11:27:55;;;;;;;3.87;0.80;;;11.30;99.90;;;;;;5134222;27;38885;-74
2021/11/21 11:30:31;;;;;;;4.83;0.60;;;11.40;99.90;;;;;;5135943;27;39284;-74
2021/11/21 11:33:14;;;;;;;6.57;0.70;;;11.40;99.90;;;;;;5147797;27;37915;-73
2021/11/21 11:35:47;;;;;;;5.60;0.77;;;11.50;99.90;;;;;;5140372;27;48495;-73
2021/11/21 11:38:17;;;;;;;4.50;0.80;;;11.70;99.90;;;;;;5140349;27;39448;-75
2021/11/21 11:41:01;;;;;;;5.17;0.90;;;11.80;99.90;;;;;;5140996;27;39836;-74
2021/11/21 11:43:38;;;;;;;5.80;0.80;;;11.90;99.90;;;;;;5143025;27;47154;-75
2021/11/21 11:46:22;;;;;;;8.05;1.13;;;12.20;99.90;;;;;;5142541;27;38784;-74
2021/11/21 11:48:49;;;;;;;6.67;0.93;;;12.40;99.90;;;;;;5127231;27;40121;-74
2021/11/21 11:51:27;;;;;;;5.18;0.85;;;12.50;99.90;;;;;;5128727;27;39252;-74
2021/11/21 11:54:11;;;;;;;6.35;1.05;;;12.40;99.90;;;;;;5146671;27;37039;-74
2021/11/21 11:56:49;;;;;;;7.70;1.00;;;12.40;99.90;;;;;;5130008;27;49125;-74
2021/11/21 11:59:33;;;;;;;7.72;1.38;;;12.50;99.90;;;;;;5146074;27;38763;-75
2021/11/21 12:02:03;;;;;;;7.03;1.40;;;12.50;99.90;;;;;;5160779;27;38319;-74
2021/11/21 12:04:29;;;;;;;6.43;1.60;;;12.60;99.90;;;;;;5133291;27;47193;-74
2021/11/21 12:07:04;;;;;;;8.73;1.60;;;11.70;99.90;;;;;;5126203;27;39588;-75
2021/11/21 12:09:35;;;;;;;5.73;1.90;;;10.80;99.90;;;;;;5142403;27;49738;-72
2021/11/21 12:12:05;;;;;;;4.57;1.07;;;10.40;99.90;;;;;;5130028;27;38938;-73
2021/11/21 12:14:39;;;;;;;6.17;0.87;;;10.20;99.90;;;;;;5141348;27;47010;-73
2021/11/21 12:17:10;;;;;;;10.93;1.87;;;10.00;99.90;;;;;;5128219;27;38932;-73
2021/11/21 12:19:50;;;;;;;10.53;1.50;;;10.00;99.90;;;;;;5134161;27;39288;-73
2021/11/21 12:22:36;;;;;;;9.67;2.00;;;10.00;99.90;;;;;;5126705;27;38109;-73
2021/11/21 12:25:17;;;;;;;13.80;1.83;;;10.00;99.90;;;;;;5138227;27;35731;-74
2021/11/21 12:27:57;;;;;;;15.30;1.77;;;10.00;99.90;;;;;;5129759;27;48724;-74
2021/11/21 12:30:28;;;;;;;14.23;1.83;;;10.10;99.90;;;;;;5131758;27;39597;-72
2021/11/21 12:33:02;;;;;;;8.90;1.90;;;10.20;99.90;;;;;;5138100;27;39426;-72
2021/11/21 12:35:35;;;;;;;13.03;1.80;;;10.40;99.90;;;;;;5142259;27;48636;-74
2021/11/21 12:38:02;;;;;;;8.53;1.60;;;10.60;99.90;;;;;;5136915;27;38919;-74
2021/11/21 12:40:46;;;;;;;13.27;1.97;;;10.70;99.90;;;;;;5132893;27;39140;-75
2021/11/21 12:43:15;;;;;;;7.43;1.40;;;10.60;99.90;;;;;;5140892;27;36512;-75
2021/11/21 12:45:49;;;;;;;10.97;1.63;;;10.50;99.90;;;;;;5134907;27;37786;-72